メインページ
METAR-TAF:

METAR-TAF

空港 :

サスカトゥーン・ジョン・G・ディーフェンベーカー国際空港

サスカトゥーン, サスカチュワン州, カナダ

緯度: 52-10N, 経度: 106-41W, 海抜: 501m

現時点の気象観測

当レポートは52分前の03:00(UTC)に作成
北西の風 8kt
気温 19°C
湿度 40%
気圧 1007 hPa
視程: 24.1km
高度10000ftの雲はほとんどない, 積乱雲.
高度30000ftの千切れ雲あり

METAR: CYXE 220300Z 31008KT 15SM FEW100CB BKN300 19/05 A2975 RMK CB2CI3 SLP080 DENSITY ALT 2800FT

時間: 21:52 (03:52 UTC)

予報

当レポートは2時間44分前の01:08(UTC)に作成
予報は22日の 01時(UTC)から 22日の 24時(UTC)まで有効
北西の風 12kt
視程: 10km
高度10000ftの雲は散在している
高度30000ftの千切れ雲あり
近辺でにわか雨
22日の 01時(UTC)から 22日の 03時(UTC)まで徐々に
変向風 3kt
視程: 10km
22日の 1600時(UTC)から
北東の風 10kt
視程: 10km
高度8000ftの千切れ雲あり
確率 30%
22日の 18時(UTC)から 22日の 24時(UTC)まで
変向風 15kt、最大25ktの突風を伴う
視程: 10km
高度8000ftの千切れ雲あり, 積乱雲.
激しい雷雨, 雨

TAF: CYXE 220108Z 2201/2224 31012KT P6SM VCSH SCT100 BKN300 BECMG 2201/2203 VRB03KT P6SM NSW FM221600 04010KT P6SM BKN080 PROB30 2218/2224 VRB15G25KT P6SM TSRA BKN080CB RMK NXT FCST BY 220600Z

4,000以上の空港の気象観測と天気予報(METAR報とTAF報)

利用可能な観測所は地図上に黄色い丸と赤い丸で示す。

丸の上にカーソルを重ねると観測所名を参照できる。

次にクリックすると気象観測と天気予報を参照できる。

マップの切り替え:黒色「×」印の緑ボタンをクリックして拡大、「-」印の緑ボタンをクリックして縮小、緑色の三角印をクリックして隣りの地図に切り替え


METAR-TAF: